Terminal Aerodrome Forecast
Issued by NWS

Home | Current Version | Previous Version | Text Only | Print | Product List | Glossary On
Versions: 1 2 3 4 5 6 7 8 9 10 11 12 13 14 15 16 17 18 19 20 21
000
FTUS45 KTFX 241723
TAFLWT
TAF
KLWT 241723Z 2418/2518 31020G25KT P6SM BKN060
     FM250000 30016G21KT P6SM SCT080
     FM250400 27010KT P6SM FEW080
     FM251200 25008KT P6SM SCT150=

USA.gov is the U.S. government's official web portal to all federal, state and local government web resources and services.